createdAt,value
2018-03-15T00:00:04.925Z,15.90
2018-03-15T00:02:32.542Z,19.25
2018-03-15T00:05:00.076Z,17.77
2018-03-15T00:07:27.667Z,13.95
2018-03-15T00:09:56.182Z,19.27
2018-03-15T00:12:23.758Z,16.48
2018-03-15T00:14:51.354Z,18.27
2018-03-15T00:17:18.940Z,13.00
2018-03-15T00:19:47.278Z,13.50
2018-03-15T00:22:14.851Z,16.58
2018-03-15T00:24:42.448Z,14.65
2018-03-15T00:27:11.672Z,14.05
2018-03-15T00:29:39.283Z,15.18
2018-03-15T00:32:06.861Z,15.48
2018-03-15T00:34:35.261Z,14.30
2018-03-15T00:37:02.815Z,14.48
2018-03-15T00:39:31.192Z,19.08
2018-03-15T00:41:58.758Z,16.27
2018-03-15T00:44:26.364Z,16.02
2018-03-15T00:46:54.005Z,18.62
2018-03-15T00:49:21.609Z,16.08
2018-03-15T00:51:50.008Z,19.40
2018-03-15T00:54:18.372Z,17.80
2018-03-15T00:56:46.690Z,15.07
2018-03-15T00:59:14.303Z,26.50
2018-03-15T01:01:41.865Z,16.55
2018-03-15T01:04:09.771Z,17.75
2018-03-15T01:06:37.337Z,17.95
2018-03-15T01:09:04.950Z,19.60
2018-03-15T01:11:32.576Z,19.20
2018-03-15T01:14:00.142Z,20.05
2018-03-15T01:16:27.876Z,19.70
2018-03-15T01:18:55.483Z,18.42
2018-03-15T01:21:23.575Z,26.23
2018-03-15T01:23:51.921Z,16.15
2018-03-15T01:26:19.511Z,16.17
2018-03-15T01:28:47.089Z,17.23
2018-03-15T01:31:15.480Z,16.33
2018-03-15T01:33:43.095Z,20.17
2018-03-15T01:36:10.674Z,16.73
2018-03-15T01:38:38.282Z,16.90
2018-03-15T01:41:05.940Z,21.73
2018-03-15T01:43:33.521Z,15.52
2018-03-15T01:46:01.083Z,16.70
2018-03-15T01:48:28.676Z,17.35
2018-03-15T01:50:56.258Z,14.55
2018-03-15T01:53:24.565Z,19.85
2018-03-15T01:55:52.174Z,15.40
2018-03-15T01:58:19.763Z,18.23
2018-03-15T02:00:48.140Z,18.30
2018-03-15T02:03:15.695Z,13.05
2018-03-15T02:05:44.090Z,16.23
2018-03-15T02:08:11.661Z,12.52
2018-03-15T02:10:39.257Z,15.38
2018-03-15T02:13:06.874Z,16.90
2018-03-15T02:15:34.442Z,14.93
2018-03-15T02:18:02.270Z,17.10
2018-03-15T02:20:30.604Z,14.70
2018-03-15T02:22:58.509Z,15.93
2018-03-15T02:25:26.094Z,13.35
2018-03-15T02:27:53.666Z,16.40
2018-03-15T02:30:21.619Z,14.15
2018-03-15T02:32:49.229Z,15.88
2018-03-15T02:35:16.780Z,19.27
2018-03-15T02:37:44.371Z,15.38
2018-03-15T02:40:11.951Z,16.62
2018-03-15T02:42:40.256Z,16.25
2018-03-15T02:45:08.244Z,14.20
2018-03-15T02:47:35.822Z,16.40
2018-03-15T02:50:03.409Z,17.12
2018-03-15T02:52:31.784Z,15.10
2018-03-15T02:54:59.365Z,16.90
2018-03-15T02:57:28.269Z,16.35
2018-03-15T02:59:55.913Z,18.33
2018-03-15T03:02:24.228Z,15.32
2018-03-15T03:04:51.790Z,16.10
2018-03-15T03:07:19.390Z,17.35
2018-03-15T03:09:46.924Z,19.52
2018-03-15T03:12:14.518Z,20.45
2018-03-15T03:14:42.869Z,17.30
2018-03-15T03:17:10.467Z,15.90
2018-03-15T03:19:39.671Z,17.65
2018-03-15T03:22:08.023Z,14.60
2018-03-15T03:24:35.619Z,18.58
2018-03-15T03:27:03.197Z,16.55
2018-03-15T03:29:32.174Z,16.35
2018-03-15T03:31:59.758Z,22.20
2018-03-15T03:34:27.409Z,17.58
2018-03-15T03:36:55.036Z,21.25
2018-03-15T03:39:23.327Z,21.25
2018-03-15T03:41:51.651Z,20.05
2018-03-15T03:44:19.257Z,20.30
2018-03-15T03:46:53.013Z,21.80
2018-03-15T03:49:20.583Z,18.60
2018-03-15T03:51:48.179Z,18.92
2018-03-15T03:54:16.483Z,18.17
2018-03-15T03:56:44.082Z,19.77
2018-03-15T03:59:11.662Z,28.17
2018-03-15T04:01:39.735Z,19.50
2018-03-15T04:04:07.288Z,24.75
2018-03-15T04:06:34.880Z,25.65
2018-03-15T04:09:03.214Z,22.05
2018-03-15T04:11:30.784Z,14.75
2018-03-15T04:13:58.331Z,26.42
2018-03-15T04:16:25.911Z,17.08
2018-03-15T04:18:53.474Z,22.73
2018-03-15T04:21:21.134Z,28.77
2018-03-15T04:23:48.687Z,23.75
2018-03-15T04:26:16.623Z,19.37
2018-03-15T04:28:44.224Z,21.67
2018-03-15T04:31:11.891Z,23.58
2018-03-15T04:33:39.436Z,28.52
2018-03-15T04:36:07.044Z,21.58
2018-03-15T04:38:34.733Z,19.75
2018-03-15T04:41:02.347Z,22.48
2018-03-15T04:43:29.954Z,23.15
2018-03-15T04:45:57.513Z,22.05
2018-03-15T04:48:25.345Z,20.50
2018-03-15T04:50:53.767Z,22.08
2018-03-15T04:53:21.376Z,26.73
2018-03-15T04:55:48.975Z,21.37
2018-03-15T04:58:16.511Z,24.83
2018-03-15T05:00:44.838Z,23.65
2018-03-15T05:03:12.397Z,23.05
2018-03-15T05:05:39.946Z,25.40
2018-03-15T05:08:07.531Z,22.40
2018-03-15T05:10:35.267Z,24.70
2018-03-15T05:13:03.151Z,27.55
2018-03-15T05:15:30.739Z,26.62
2018-03-15T05:17:59.798Z,25.65
2018-03-15T05:20:27.404Z,29.50
2018-03-15T05:22:55.562Z,31.85
2018-03-15T05:25:24.256Z,27.60
2018-03-15T05:27:52.604Z,30.75
2018-03-15T05:30:20.202Z,29.65
2018-03-15T05:32:48.529Z,28.25
2018-03-15T05:35:16.082Z,27.02
2018-03-15T05:37:43.649Z,28.38
2018-03-15T05:40:11.248Z,26.48
2018-03-15T05:42:38.838Z,30.17
2018-03-15T05:45:06.457Z,29.15
2018-03-15T05:47:34.054Z,27.85
2018-03-15T05:50:01.659Z,24.70
2018-03-15T05:52:30.054Z,27.85
2018-03-15T05:54:57.638Z,29.10
2018-03-15T05:57:25.240Z,25.20
2018-03-15T05:59:52.822Z,36.45
2018-03-15T06:02:20.399Z,29.15
2018-03-15T06:04:47.983Z,34.20
2018-03-15T06:07:15.587Z,29.30
2018-03-15T06:09:43.148Z,25.75
2018-03-15T06:12:11.708Z,35.03
2018-03-15T06:14:39.276Z,35.30
2018-03-15T06:17:06.922Z,32.47
2018-03-15T06:19:34.491Z,29.52
2018-03-15T06:22:02.112Z,28.92
2018-03-15T06:24:30.064Z,31.35
2018-03-15T06:26:57.684Z,32.60
2018-03-15T06:29:25.272Z,33.83
2018-03-15T06:31:52.882Z,28.00
2018-03-15T06:34:21.222Z,28.65
2018-03-15T06:36:48.857Z,29.77
2018-03-15T06:39:17.145Z,33.35
2018-03-15T06:41:46.594Z,29.17
2018-03-15T06:44:14.922Z,31.30
2018-03-15T06:46:42.487Z,23.52
2018-03-15T06:49:10.098Z,28.55
2018-03-15T06:51:38.481Z,29.65
2018-03-15T06:54:06.845Z,26.42
2018-03-15T06:56:34.410Z,30.27
2018-03-15T06:59:02.738Z,30.20
2018-03-15T07:01:30.335Z,34.53
2018-03-15T07:03:57.885Z,28.30
2018-03-15T07:06:26.299Z,26.90
2018-03-15T07:08:54.912Z,30.45
2018-03-15T07:11:23.215Z,23.92
2018-03-15T07:13:50.782Z,34.03
2018-03-15T07:16:18.385Z,35.00
2018-03-15T07:18:45.968Z,28.75
2018-03-15T07:21:13.599Z,39.53
2018-03-15T07:23:42.927Z,35.33
2018-03-15T07:26:10.535Z,29.63
2018-03-15T07:28:38.172Z,29.42
2018-03-15T07:31:05.747Z,30.08
2018-03-15T07:33:33.289Z,41.08
2018-03-15T07:36:00.906Z,32.20
2018-03-15T07:38:28.505Z,28.60
2018-03-15T07:40:56.098Z,31.27
2018-03-15T07:43:24.328Z,24.60
2018-03-15T07:45:51.937Z,27.20
2018-03-15T07:48:19.553Z,34.05
2018-03-15T07:50:47.201Z,28.90
2018-03-15T07:53:14.720Z,30.15
2018-03-15T07:55:45.479Z,25.58
2018-03-15T07:58:13.062Z,24.48
2018-03-15T08:00:40.654Z,28.20
2018-03-15T08:03:08.255Z,30.23
2018-03-15T08:05:35.818Z,27.25
2018-03-15T08:08:03.372Z,25.08
2018-03-15T08:10:31.818Z,25.75
2018-03-15T08:12:59.466Z,28.60
2018-03-15T08:15:27.121Z,24.70
2018-03-15T08:17:54.681Z,27.33
2018-03-15T08:20:22.280Z,21.42
2018-03-15T08:22:50.195Z,39.17
2018-03-15T08:25:17.804Z,26.05
2018-03-15T08:27:45.368Z,31.90
2018-03-15T08:30:13.051Z,27.15
2018-03-15T08:32:41.402Z,30.75
2018-03-15T08:35:08.986Z,27.00
2018-03-15T08:37:36.547Z,27.37
2018-03-15T08:40:06.836Z,23.65
2018-03-15T08:42:35.131Z,44.80
2018-03-15T08:45:02.726Z,42.85
2018-03-15T08:47:30.278Z,31.95
2018-03-15T08:49:57.905Z,29.00
2018-03-15T08:52:25.555Z,26.50
2018-03-15T08:54:53.889Z,37.17
2018-03-15T08:57:21.596Z,29.77
2018-03-15T08:59:49.210Z,29.65
2018-03-15T09:02:16.795Z,22.58
2018-03-15T09:04:44.774Z,25.40
2018-03-15T09:07:12.415Z,32.75
2018-03-15T09:09:40.057Z,26.37
2018-03-15T09:12:08.412Z,27.37
2018-03-15T09:14:36.736Z,28.55
2018-03-15T09:17:05.228Z,29.73
2018-03-15T09:19:33.553Z,25.10
2018-03-15T09:22:01.958Z,30.15
2018-03-15T09:24:29.582Z,31.40
2018-03-15T09:26:57.172Z,30.88
2018-03-15T09:29:25.679Z,38.20
2018-03-15T09:31:53.372Z,24.33
2018-03-15T09:34:21.011Z,24.90
2018-03-15T09:36:48.697Z,28.92
2018-03-15T09:39:16.303Z,27.62
2018-03-15T09:41:43.893Z,23.25
2018-03-15T09:44:11.514Z,23.35
2018-03-15T09:46:39.137Z,28.10
2018-03-15T09:49:06.695Z,23.87
2018-03-15T09:51:34.279Z,24.40
2018-03-15T09:54:02.689Z,29.00
2018-03-15T09:56:30.320Z,28.38
2018-03-15T09:58:58.783Z,26.95
2018-03-15T10:01:27.938Z,30.60
2018-03-15T10:03:55.555Z,24.98
2018-03-15T10:06:23.161Z,65.22
2018-03-15T10:08:50.805Z,33.60
2018-03-15T10:11:18.427Z,25.45
2018-03-15T10:13:46.020Z,28.52
2018-03-15T10:16:13.611Z,26.87
2018-03-15T10:18:41.231Z,45.50
2018-03-15T10:21:09.593Z,29.20
2018-03-15T10:23:37.926Z,27.37
2018-03-15T10:26:05.574Z,23.33
2018-03-15T10:28:33.219Z,28.08
2018-03-15T10:31:01.002Z,29.15
2018-03-15T10:33:34.401Z,25.65
2018-03-15T10:36:02.393Z,27.27
2018-03-15T10:38:29.986Z,41.45
2018-03-15T10:40:58.550Z,36.60
2018-03-15T10:43:26.206Z,42.33
2018-03-15T10:45:53.803Z,29.98
2018-03-15T10:48:22.189Z,27.52
2018-03-15T10:50:50.670Z,28.35
2018-03-15T10:53:19.690Z,25.50
2018-03-15T10:55:47.312Z,26.17
2018-03-15T10:58:15.920Z,23.77
2018-03-15T11:00:49.222Z,26.92
2018-03-15T11:03:17.693Z,24.17
2018-03-15T11:05:46.930Z,26.77
2018-03-15T11:08:20.323Z,22.20
2018-03-15T11:10:48.111Z,20.60
2018-03-15T11:13:15.687Z,28.42
2018-03-15T11:15:44.033Z,21.75
2018-03-15T11:18:11.675Z,22.83
2018-03-15T11:20:39.279Z,22.13
2018-03-15T11:23:08.134Z,22.20
2018-03-15T11:25:35.808Z,21.70
2018-03-15T11:28:04.976Z,18.45
2018-03-15T11:30:33.380Z,22.92
2018-03-15T11:33:01.838Z,20.15
2018-03-15T11:35:29.441Z,20.50
2018-03-15T11:37:57.066Z,19.58
2018-03-15T11:40:24.662Z,20.83
2018-03-15T11:42:52.274Z,27.98
2018-03-15T11:45:20.142Z,22.87
2018-03-15T11:47:47.712Z,19.35
2018-03-15T11:50:15.349Z,22.75
2018-03-15T11:52:43.913Z,21.10
2018-03-15T11:55:12.381Z,34.22
2018-03-15T11:57:40.018Z,21.48
2018-03-15T12:00:08.188Z,18.30
2018-03-15T12:02:35.897Z,18.08
2018-03-15T12:05:03.504Z,19.85
2018-03-15T12:07:31.188Z,19.35
2018-03-15T12:09:59.666Z,18.87
2018-03-15T12:12:27.258Z,23.23
2018-03-15T12:14:55.660Z,17.70
2018-03-15T12:17:23.267Z,17.92
2018-03-15T12:19:50.932Z,24.33
2018-03-15T12:22:18.510Z,21.17
2018-03-15T12:24:46.086Z,20.67
2018-03-15T12:27:13.810Z,27.98
2018-03-15T12:29:42.256Z,16.50
2018-03-15T12:32:09.869Z,20.75
2018-03-15T12:34:37.409Z,23.00
2018-03-15T12:37:05.123Z,20.90
2018-03-15T12:39:33.278Z,23.52
2018-03-15T12:42:00.853Z,19.48
2018-03-15T12:44:28.443Z,26.75
2018-03-15T12:46:56.063Z,25.35
2018-03-15T12:49:23.610Z,21.85
2018-03-15T12:51:51.208Z,24.50
2018-03-15T12:54:19.552Z,17.30
2018-03-15T12:56:47.149Z,18.02
2018-03-15T12:59:15.635Z,20.80
2018-03-15T13:01:44.320Z,21.62
2018-03-15T13:04:13.514Z,24.17
2018-03-15T13:06:41.888Z,19.80
2018-03-15T13:09:10.195Z,18.77
2018-03-15T13:11:37.900Z,32.28
2018-03-15T13:14:05.458Z,18.35
2018-03-15T13:16:33.082Z,24.15
2018-03-15T13:19:02.992Z,26.87
2018-03-15T13:21:30.625Z,19.95
2018-03-15T13:23:58.954Z,31.10
2018-03-15T13:26:26.546Z,28.95
2018-03-15T13:28:54.155Z,19.27
2018-03-15T13:31:21.746Z,25.25
2018-03-15T13:33:49.341Z,16.85
2018-03-15T13:36:17.413Z,19.45
2018-03-15T13:38:45.758Z,25.65
2018-03-15T13:41:14.276Z,27.55
2018-03-15T13:43:42.625Z,21.12
2018-03-15T13:46:10.311Z,16.75
2018-03-15T13:48:37.939Z,24.35
2018-03-15T13:51:05.604Z,19.23
2018-03-15T13:53:33.260Z,18.45
2018-03-15T13:56:00.962Z,25.83
2018-03-15T13:58:28.618Z,19.00
2018-03-15T14:00:56.995Z,26.85
2018-03-15T14:03:29.209Z,25.52
2018-03-15T14:05:56.838Z,18.27
2018-03-15T14:08:25.687Z,34.67
2018-03-15T14:10:53.324Z,20.02
2018-03-15T14:13:21.144Z,25.80
2018-03-15T14:15:48.748Z,23.73
2018-03-15T14:18:16.379Z,21.85
2018-03-15T14:20:44.755Z,48.47
2018-03-15T14:23:13.192Z,27.13
2018-03-15T14:25:40.878Z,26.15
2018-03-15T14:28:08.569Z,26.55
2018-03-15T14:30:36.994Z,28.33
2018-03-15T14:33:04.571Z,22.65
2018-03-15T14:35:32.167Z,26.58
2018-03-15T14:38:00.701Z,20.05
2018-03-15T14:40:28.276Z,26.12
2018-03-15T14:42:55.846Z,25.10
2018-03-15T14:45:23.442Z,22.83
2018-03-15T14:47:51.052Z,22.50
2018-03-15T14:50:18.854Z,18.20
2018-03-15T14:52:48.269Z,19.62
2018-03-15T14:55:15.903Z,20.73
2018-03-15T14:57:43.538Z,18.70
2018-03-15T15:00:11.194Z,18.85
2018-03-15T15:02:38.869Z,24.77
2018-03-15T15:05:06.488Z,28.77
2018-03-15T15:07:34.096Z,26.65
2018-03-15T15:10:01.746Z,19.98
2018-03-15T15:12:29.360Z,21.48
2018-03-15T15:14:58.679Z,19.58
2018-03-15T15:17:26.316Z,22.60
2018-03-15T15:19:54.745Z,23.55
2018-03-15T15:22:22.364Z,22.25
2018-03-15T15:24:49.937Z,21.52
2018-03-15T15:27:17.551Z,23.42
2018-03-15T15:29:45.299Z,36.65
2018-03-15T15:32:12.934Z,20.45
2018-03-15T15:34:40.551Z,26.33
2018-03-15T15:37:08.195Z,28.87
2018-03-15T15:39:36.218Z,26.00
2018-03-15T15:42:03.840Z,23.30
2018-03-15T15:44:31.454Z,28.10
2018-03-15T15:46:59.167Z,25.60
2018-03-15T15:49:26.796Z,23.67
2018-03-15T15:51:54.451Z,27.83
2018-03-15T15:54:23.256Z,33.60
2018-03-15T15:56:50.864Z,26.77
2018-03-15T15:59:19.266Z,28.02
2018-03-15T16:01:47.140Z,26.42
2018-03-15T16:04:15.049Z,27.35
2018-03-15T16:06:42.685Z,30.85
2018-03-15T16:09:10.790Z,24.65
2018-03-15T16:11:39.180Z,28.60
2018-03-15T16:14:06.723Z,28.15
2018-03-15T16:16:34.379Z,26.70
2018-03-15T16:19:02.732Z,26.75
2018-03-15T16:21:30.306Z,30.40
2018-03-15T16:23:57.879Z,25.40
2018-03-15T16:26:25.470Z,29.98
2018-03-15T16:28:54.669Z,31.67
2018-03-15T16:31:23.031Z,28.65
2018-03-15T16:33:51.491Z,27.35
2018-03-15T16:36:19.111Z,27.70
2018-03-15T16:38:47.886Z,26.42
2018-03-15T16:41:15.531Z,25.48
2018-03-15T16:43:43.111Z,26.80
2018-03-15T16:46:10.704Z,26.17
2018-03-15T16:48:38.285Z,28.90
2018-03-15T16:51:05.912Z,29.60
2018-03-15T16:53:33.482Z,30.55
2018-03-15T16:56:01.637Z,26.70
2018-03-15T16:58:29.191Z,32.38
2018-03-15T17:00:56.786Z,25.65
2018-03-15T17:03:25.404Z,25.95
2018-03-15T17:05:54.124Z,27.60
2018-03-15T17:08:21.700Z,28.92
2018-03-15T17:10:49.284Z,29.50
2018-03-15T17:13:16.846Z,21.98
2018-03-15T17:15:44.768Z,25.83
2018-03-15T17:18:12.398Z,24.02
2018-03-15T17:20:40.000Z,24.37
2018-03-15T17:23:07.913Z,25.30
2018-03-15T17:25:35.493Z,26.52
2018-03-15T17:28:03.188Z,28.08
2018-03-15T17:30:30.794Z,24.90
2018-03-15T17:32:58.349Z,28.20
2018-03-15T17:35:26.434Z,24.08
2018-03-15T17:37:54.812Z,28.15
2018-03-15T17:40:22.441Z,36.67
2018-03-15T17:42:50.046Z,26.33
2018-03-15T17:45:17.693Z,29.33
2018-03-15T17:47:45.389Z,27.55
2018-03-15T17:50:13.757Z,29.17
2018-03-15T17:52:42.117Z,29.52
2018-03-15T17:55:09.710Z,34.72
2018-03-15T17:57:38.587Z,29.70
2018-03-15T18:00:06.156Z,35.28
2018-03-15T18:02:34.579Z,33.90
2018-03-15T18:05:02.956Z,30.90
2018-03-15T18:07:30.567Z,32.47
2018-03-15T18:09:58.981Z,30.37
2018-03-15T18:12:27.511Z,33.03
2018-03-15T18:14:55.091Z,27.35
2018-03-15T18:17:23.475Z,35.15
2018-03-15T18:19:51.887Z,29.48
2018-03-15T18:22:19.462Z,29.50
2018-03-15T18:24:47.967Z,28.52
2018-03-15T18:27:15.563Z,35.03
2018-03-15T18:29:43.103Z,29.67
2018-03-15T18:32:10.709Z,32.20
2018-03-15T18:34:39.066Z,26.98
2018-03-15T18:37:06.763Z,35.28
2018-03-15T18:39:34.473Z,28.23
2018-03-15T18:42:02.087Z,31.90
2018-03-15T18:44:30.107Z,31.77
2018-03-15T18:46:58.544Z,31.30
2018-03-15T18:49:26.197Z,26.33
2018-03-15T18:51:53.831Z,32.17
2018-03-15T18:54:21.486Z,29.50
2018-03-15T18:56:49.157Z,30.90
2018-03-15T18:59:16.764Z,31.52
2018-03-15T19:01:44.347Z,27.25
2018-03-15T19:04:11.935Z,28.75
2018-03-15T19:06:39.581Z,26.87
2018-03-15T19:09:07.906Z,33.15
2018-03-15T19:11:35.470Z,33.45
2018-03-15T19:14:03.058Z,33.63
2018-03-15T19:16:30.630Z,30.95
2018-03-15T19:18:59.893Z,30.42
2018-03-15T19:21:27.476Z,31.30
2018-03-15T19:23:55.094Z,32.58
2018-03-15T19:26:22.687Z,32.70
2018-03-15T19:28:50.242Z,30.55
2018-03-15T19:31:17.905Z,28.48
2018-03-15T19:33:45.472Z,33.75
2018-03-15T19:36:13.866Z,34.53
2018-03-15T19:38:42.259Z,32.42
2018-03-15T19:41:10.578Z,31.35
2018-03-15T19:43:38.156Z,34.50
2018-03-15T19:46:05.735Z,33.90
2018-03-15T19:48:33.296Z,31.15
2018-03-15T19:51:01.819Z,32.65
2018-03-15T19:53:29.379Z,30.85
2018-03-15T19:55:57.004Z,30.20
2018-03-15T19:58:25.325Z,29.20
2018-03-15T20:00:52.944Z,31.05
2018-03-15T20:03:21.307Z,29.73
2018-03-15T20:05:49.497Z,31.73
2018-03-15T20:08:18.000Z,28.77
2018-03-15T20:10:46.917Z,33.90
2018-03-15T20:13:14.487Z,31.10
2018-03-15T20:15:47.652Z,36.13
2018-03-15T20:18:15.279Z,39.28
2018-03-15T20:20:44.393Z,36.60
2018-03-15T20:23:17.786Z,31.73
2018-03-15T20:25:45.809Z,36.42
2018-03-15T20:28:20.112Z,30.08
2018-03-15T20:30:47.686Z,32.63
2018-03-15T20:33:20.976Z,31.67
2018-03-15T20:35:49.170Z,32.35
2018-03-15T20:38:17.057Z,33.83
2018-03-15T20:40:50.441Z,32.58
2018-03-15T20:43:18.133Z,30.67
2018-03-15T20:45:52.147Z,32.33
2018-03-15T20:48:26.750Z,33.65
2018-03-15T20:50:54.345Z,36.20
2018-03-15T20:53:21.934Z,35.65
2018-03-15T20:55:49.551Z,32.00
2018-03-15T20:58:17.302Z,31.87
2018-03-15T21:00:44.907Z,30.60
2018-03-15T21:03:12.486Z,30.60
2018-03-15T21:05:40.078Z,32.88
2018-03-15T21:08:14.060Z,32.67
2018-03-15T21:10:42.600Z,37.28
2018-03-15T21:13:10.217Z,37.78
2018-03-15T21:15:37.854Z,33.95
2018-03-15T21:18:05.470Z,34.00
2018-03-15T21:20:33.825Z,30.85
2018-03-15T21:23:01.449Z,36.45
2018-03-15T21:25:29.556Z,37.22
2018-03-15T21:27:57.153Z,39.03
2018-03-15T21:30:24.786Z,34.60
2018-03-15T21:32:52.359Z,41.28
2018-03-15T21:35:19.946Z,37.25
2018-03-15T21:37:47.525Z,36.33
2018-03-15T21:40:15.100Z,36.95
2018-03-15T21:42:42.706Z,37.20
2018-03-15T21:45:11.075Z,38.53
2018-03-15T21:47:39.164Z,36.72
2018-03-15T21:50:06.865Z,38.92
2018-03-15T21:52:35.214Z,36.63
2018-03-15T21:55:02.827Z,40.10
2018-03-15T21:57:30.596Z,38.50
2018-03-15T21:59:58.163Z,34.95
2018-03-15T22:02:25.805Z,35.47
2018-03-15T22:04:54.194Z,40.12
2018-03-15T22:07:21.791Z,38.15
2018-03-15T22:09:50.113Z,45.05
2018-03-15T22:12:17.718Z,41.28
2018-03-15T22:14:45.304Z,42.45
2018-03-15T22:17:13.885Z,41.83
2018-03-15T22:19:41.446Z,43.70
2018-03-15T22:22:10.236Z,40.30
2018-03-15T22:24:37.794Z,40.92
2018-03-15T22:27:07.093Z,38.33
2018-03-15T22:29:34.652Z,35.67
2018-03-15T22:32:03.071Z,44.40
2018-03-15T22:34:30.623Z,39.22
2018-03-15T22:36:59.067Z,44.10
2018-03-15T22:39:26.621Z,43.95
2018-03-15T22:41:54.962Z,40.80
2018-03-15T22:44:22.499Z,39.65
2018-03-15T22:46:50.079Z,39.70
2018-03-15T22:49:17.660Z,39.53
2018-03-15T22:51:45.322Z,41.30
2018-03-15T22:54:12.938Z,43.92
2018-03-15T22:56:41.489Z,43.47
2018-03-15T22:59:09.930Z,43.67
2018-03-15T23:01:37.550Z,41.00
2018-03-15T23:04:06.088Z,41.13
2018-03-15T23:06:33.885Z,43.72
2018-03-15T23:09:01.453Z,39.67
2018-03-15T23:11:29.036Z,40.42
2018-03-15T23:13:56.597Z,41.97
2018-03-15T23:16:24.236Z,44.90
2018-03-15T23:18:52.445Z,43.85
2018-03-15T23:21:20.036Z,43.97
2018-03-15T23:23:47.671Z,39.95
2018-03-15T23:26:17.407Z,39.75
2018-03-15T23:28:45.000Z,43.08
2018-03-15T23:31:12.568Z,46.55
2018-03-15T23:33:41.020Z,40.03
2018-03-15T23:36:09.378Z,41.45
2018-03-15T23:38:37.849Z,50.05
2018-03-15T23:41:05.446Z,44.10
2018-03-15T23:43:33.787Z,41.33
2018-03-15T23:46:01.350Z,43.55
2018-03-15T23:48:28.930Z,46.78
2018-03-15T23:50:57.443Z,45.55
2018-03-15T23:53:25.034Z,43.95
2018-03-15T23:55:52.653Z,51.20
2018-03-15T23:58:20.267Z,46.05
